Time;durP1;ratioP1;P1;durP2;ratioP2;P2;SDS_P1;SDS_P2;PMS_P1;PMS_P2;Temp;Humidity;BMP_temperature;BMP_pressure;BME280_temperature;BME280_humidity;BME280_pressure;Samples;Min_cycle;Max_cycle;Signal;HPM_P1;HPM_P2
2023/11/30 00:02:03;;;;;;;10.47;9.37;;;;;;;;;;5026933;28;20415;-44
2023/11/30 00:04:29;;;;;;;11.52;9.05;;;;;;;;;;5026283;28;20400;-44
2023/11/30 00:06:55;;;;;;;11.00;8.30;;;;;;;;;;5030479;28;20203;-43
2023/11/30 00:09:21;;;;;;;9.50;7.13;;;;;;;;;;5030872;28;20457;-43
2023/11/30 00:11:47;;;;;;;10.43;9.20;;;;;;;;;;5024012;28;20409;-43
2023/11/30 00:14:13;;;;;;;11.20;10.00;;;;;;;;;;5028045;28;20442;-43
2023/11/30 00:16:39;;;;;;;9.13;7.25;;;;;;;;;;5026366;28;20398;-43
2023/11/30 00:19:05;;;;;;;13.60;12.23;;;;;;;;;;5026305;28;20192;-43
2023/11/30 00:21:31;;;;;;;12.00;10.73;;;;;;;;;;5026410;28;20410;-44
2023/11/30 00:23:57;;;;;;;12.93;11.63;;;;;;;;;;5023276;28;20419;-43
2023/11/30 00:26:23;;;;;;;13.02;11.73;;;;;;;;;;5023203;28;20180;-43
2023/11/30 00:28:49;;;;;;;10.10;9.10;;;;;;;;;;5028882;28;20212;-43
2023/11/30 00:31:15;;;;;;;11.80;10.60;;;;;;;;;;5029932;28;20398;-43
2023/11/30 00:33:41;;;;;;;14.80;13.40;;;;;;;;;;5026164;28;20466;-44
2023/11/30 00:36:08;;;;;;;12.03;10.83;;;;;;;;;;5026084;28;20762;-43
2023/11/30 00:38:34;;;;;;;12.55;11.15;;;;;;;;;;5026527;28;20931;-43
2023/11/30 00:41:00;;;;;;;10.20;9.00;;;;;;;;;;5026240;28;20224;-44
2023/11/30 00:43:26;;;;;;;12.43;11.13;;;;;;;;;;5023006;28;20478;-44
2023/11/30 00:45:52;;;;;;;9.23;8.20;;;;;;;;;;5030337;28;20928;-43
2023/11/30 00:48:17;;;;;;;12.05;10.60;;;;;;;;;;5030079;28;20815;-43
2023/11/30 00:50:44;;;;;;;13.13;11.87;;;;;;;;;;5019117;28;20204;-43
2023/11/30 00:53:10;;;;;;;12.55;11.30;;;;;;;;;;5026286;28;20484;-43
2023/11/30 00:55:36;;;;;;;15.73;13.23;;;;;;;;;;5025683;28;20212;-43
2023/11/30 00:58:02;;;;;;;12.45;10.63;;;;;;;;;;5023765;28;20426;-43
2023/11/30 01:00:28;;;;;;;12.93;11.57;;;;;;;;;;5025755;28;20179;-44
2023/11/30 01:02:54;;;;;;;10.50;9.13;;;;;;;;;;5029915;28;20981;-43
2023/11/30 01:05:20;;;;;;;10.00;7.40;;;;;;;;;;5029970;28;20410;-43
2023/11/30 01:07:46;;;;;;;10.15;8.60;;;;;;;;;;5004844;28;20443;-43
2023/11/30 01:10:12;;;;;;;13.47;12.17;;;;;;;;;;5026841;28;20203;-43
2023/11/30 01:12:38;;;;;;;9.80;8.00;;;;;;;;;;5022074;28;20407;-43
2023/11/30 01:15:04;;;;;;;11.37;10.13;;;;;;;;;;5025538;28;20632;-43
2023/11/30 01:17:30;;;;;;;11.88;10.63;;;;;;;;;;5025037;28;20432;-44
2023/11/30 01:19:57;;;;;;;11.50;10.20;;;;;;;;;;5011707;28;20263;-43
2023/11/30 01:22:23;;;;;;;9.57;8.50;;;;;;;;;;5022349;28;20803;-43
2023/11/30 01:24:49;;;;;;;11.43;9.77;;;;;;;;;;5028366;28;20172;-43
2023/11/30 01:27:16;;;;;;;10.15;7.72;;;;;;;;;;5025068;28;20702;-44
2023/11/30 01:29:41;;;;;;;12.20;10.90;;;;;;;;;;5019920;28;20203;-43
2023/11/30 01:32:07;;;;;;;12.90;11.77;;;;;;;;;;5025245;28;20183;-43
2023/11/30 01:34:33;;;;;;;16.27;14.53;;;;;;;;;;5025102;28;20439;-43
2023/11/30 01:37:00;;;;;;;34.53;32.23;;;;;;;;;;5024904;28;20407;-43
2023/11/30 01:39:26;;;;;;;30.70;28.90;;;;;;;;;;5024952;28;20860;-44
2023/11/30 01:41:52;;;;;;;23.33;21.90;;;;;;;;;;5029409;28;20252;-43
2023/11/30 01:44:18;;;;;;;24.08;22.52;;;;;;;;;;5028986;28;20748;-43
2023/11/30 01:46:45;;;;;;;19.23;17.97;;;;;;;;;;5000521;28;20186;-43
2023/11/30 01:49:11;;;;;;;15.93;14.57;;;;;;;;;;5024840;28;20866;-43
2023/11/30 01:51:37;;;;;;;18.88;17.50;;;;;;;;;;5007147;28;20171;-43
2023/11/30 01:54:03;;;;;;;10.43;8.32;;;;;;;;;;5024842;28;20242;-43
2023/11/30 01:56:30;;;;;;;20.73;19.27;;;;;;;;;;5024473;28;20235;-43
2023/11/30 01:58:56;;;;;;;14.10;12.80;;;;;;;;;;5024131;28;20220;-43
2023/11/30 02:01:26;;;;;;;11.98;10.57;;;;;;;;;;5028254;28;20191;-44
2023/11/30 02:03:52;;;;;;;11.82;9.75;;;;;;;;;;5026195;28;20183;-44
2023/11/30 02:06:19;;;;;;;13.68;12.30;;;;;;;;;;5014447;28;20227;-43
2023/11/30 02:08:45;;;;;;;16.98;14.35;;;;;;;;;;5030737;28;20479;-44
2023/11/30 02:11:11;;;;;;;14.02;12.68;;;;;;;;;;5019739;28;20180;-43
2023/11/30 02:13:37;;;;;;;13.13;11.67;;;;;;;;;;5028975;28;20176;-43
2023/11/30 02:16:03;;;;;;;13.57;12.23;;;;;;;;;;5020660;28;20410;-43
2023/11/30 02:18:29;;;;;;;12.57;11.27;;;;;;;;;;5025511;28;20192;-43
2023/11/30 02:20:55;;;;;;;14.30;12.93;;;;;;;;;;5029729;28;20175;-43
2023/11/30 02:23:21;;;;;;;24.03;22.43;;;;;;;;;;5024230;28;20417;-43
2023/11/30 02:25:47;;;;;;;13.75;12.35;;;;;;;;;;5023873;28;20438;-43
2023/11/30 02:28:19;;;;;;;11.53;9.57;;;;;;;;;;5021494;28;20583;-44
2023/11/30 02:30:46;;;;;;;30.30;28.35;;;;;;;;;;5023318;28;20498;-44
2023/11/30 02:33:15;;;;;;;32.40;30.30;;;;;;;;;;5025686;28;20172;-44
2023/11/30 02:35:41;;;;;;;29.17;27.17;;;;;;;;;;5028431;28;20178;-44
2023/11/30 02:38:07;;;;;;;13.57;12.37;;;;;;;;;;5026279;28;20191;-43
2023/11/30 02:40:33;;;;;;;12.25;10.27;;;;;;;;;;5023854;28;20418;-43
2023/11/30 02:42:59;;;;;;;12.93;11.70;;;;;;;;;;5023988;28;20183;-44
2023/11/30 02:45:25;;;;;;;14.23;12.97;;;;;;;;;;5023678;28;20414;-45
2023/11/30 02:47:51;;;;;;;12.45;11.35;;;;;;;;;;5023618;28;20441;-43
2023/11/30 02:50:17;;;;;;;15.20;14.00;;;;;;;;;;5024694;28;20200;-43
2023/11/30 02:52:43;;;;;;;12.03;10.67;;;;;;;;;;5028494;28;20403;-44
2023/11/30 02:55:08;;;;;;;11.00;9.87;;;;;;;;;;5026730;28;20989;-43
2023/11/30 02:57:35;;;;;;;12.50;11.23;;;;;;;;;;5023329;28;20945;-43
2023/11/30 03:00:02;;;;;;;10.30;9.25;;;;;;;;;;5023701;28;20429;-44
2023/11/30 03:02:28;;;;;;;10.93;8.00;;;;;;;;;;5023593;28;20176;-43
2023/11/30 03:04:53;;;;;;;9.73;8.47;;;;;;;;;;5022915;28;20298;-43
2023/11/30 03:07:19;;;;;;;12.87;11.07;;;;;;;;;;5019241;28;20489;-43
2023/11/30 03:09:45;;;;;;;11.90;9.30;;;;;;;;;;5028003;28;20462;-43
2023/11/30 03:12:12;;;;;;;11.30;10.10;;;;;;;;;;5026524;28;20406;-44
2023/11/30 03:14:38;;;;;;;10.90;9.45;;;;;;;;;;5023169;28;20408;-44
2023/11/30 03:17:04;;;;;;;9.33;7.87;;;;;;;;;;5021969;28;20171;-43
2023/11/30 03:19:30;;;;;;;10.20;7.68;;;;;;;;;;5018539;28;20830;-43
2023/11/30 03:21:56;;;;;;;10.40;7.97;;;;;;;;;;5020998;28;20288;-43
2023/11/30 03:24:23;;;;;;;24.97;23.37;;;;;;;;;;5019985;28;20459;-44
2023/11/30 03:26:49;;;;;;;13.02;12.23;;;;;;;;;;5027980;28;20859;-43
2023/11/30 03:29:15;;;;;;;5.70;5.40;;;;;;;;;;5019694;28;20235;-44
2023/11/30 03:31:41;;;;;;;3.80;3.80;;;;;;;;;;5025057;28;20877;-43
2023/11/30 03:34:07;;;;;;;3.03;3.03;;;;;;;;;;5025634;28;20490;-44
2023/11/30 03:36:32;;;;;;;3.50;3.50;;;;;;;;;;5022972;28;20406;-44
2023/11/30 03:38:58;;;;;;;3.57;3.57;;;;;;;;;;5023440;28;20435;-43
2023/11/30 03:41:24;;;;;;;3.70;3.70;;;;;;;;;;5024813;28;20408;-44
2023/11/30 03:43:51;;;;;;;3.20;3.20;;;;;;;;;;5023241;28;20433;-43
2023/11/30 03:46:17;;;;;;;3.78;3.78;;;;;;;;;;5023950;28;20533;-43
2023/11/30 03:48:43;;;;;;;3.55;3.55;;;;;;;;;;5022942;28;20251;-43
2023/11/30 03:51:10;;;;;;;3.80;3.80;;;;;;;;;;5025943;28;20658;-43
2023/11/30 03:53:36;;;;;;;3.78;3.78;;;;;;;;;;5015018;28;20719;-44
2023/11/30 03:56:02;;;;;;;3.35;3.35;;;;;;;;;;5024231;28;20172;-44
2023/11/30 03:58:28;;;;;;;3.40;3.40;;;;;;;;;;5019862;28;20278;-44
2023/11/30 04:00:54;;;;;;;3.10;3.10;;;;;;;;;;5023021;28;20594;-43
2023/11/30 04:03:20;;;;;;;4.15;4.15;;;;;;;;;;5023696;28;20456;-43
2023/11/30 04:05:46;;;;;;;3.58;3.58;;;;;;;;;;5026342;28;20179;-43
2023/11/30 04:08:13;;;;;;;4.10;4.10;;;;;;;;;;5025892;28;20192;-43
2023/11/30 04:10:38;;;;;;;3.87;3.73;;;;;;;;;;5022463;28;20546;-43
2023/11/30 04:13:04;;;;;;;25.67;24.40;;;;;;;;;;5025034;28;20524;-43
2023/11/30 04:15:30;;;;;;;4.68;4.68;;;;;;;;;;5005016;28;20798;-43
2023/11/30 04:17:56;;;;;;;3.90;3.90;;;;;;;;;;5023571;28;20188;-43
2023/11/30 04:20:22;;;;;;;4.20;4.20;;;;;;;;;;5027039;28;20435;-43
2023/11/30 04:22:48;;;;;;;96.22;91.05;;;;;;;;;;5031002;28;20433;-44
2023/11/30 04:25:14;;;;;;;3.70;3.70;;;;;;;;;;5024462;28;20600;-43
2023/11/30 04:27:41;;;;;;;51.90;48.93;;;;;;;;;;5030669;28;20437;-44
2023/11/30 04:30:07;;;;;;;32.00;30.27;;;;;;;;;;5023778;28;20546;-43
2023/11/30 04:32:33;;;;;;;56.63;53.58;;;;;;;;;;5026325;28;20203;-45
2023/11/30 04:34:59;;;;;;;37.37;35.37;;;;;;;;;;5026295;28;20226;-43
2023/11/30 04:37:25;;;;;;;76.97;73.20;;;;;;;;;;5027221;28;20445;-43
2023/11/30 04:39:51;;;;;;;115.93;108.97;;;;;;;;;;5026257;28;20406;-43
2023/11/30 04:42:17;;;;;;;3.60;3.60;;;;;;;;;;5027330;28;20442;-44
2023/11/30 04:44:43;;;;;;;4.13;4.13;;;;;;;;;;5026227;28;20515;-43
2023/11/30 04:47:09;;;;;;;26.50;25.40;;;;;;;;;;5028224;28;20774;-43
2023/11/30 04:49:35;;;;;;;22.10;20.80;;;;;;;;;;5025821;28;20488;-43
2023/11/30 04:52:01;;;;;;;46.27;44.03;;;;;;;;;;5009705;28;20493;-44
2023/11/30 04:54:27;;;;;;;17.27;16.37;;;;;;;;;;5025945;28;20822;-43
2023/11/30 04:56:53;;;;;;;33.73;31.80;;;;;;;;;;5025804;28;20404;-44
2023/11/30 04:59:19;;;;;;;19.40;18.20;;;;;;;;;;5026723;28;20405;-43
2023/11/30 05:01:45;;;;;;;18.27;17.00;;;;;;;;;;5030495;28;20929;-43
2023/11/30 05:04:11;;;;;;;3.70;3.70;;;;;;;;;;5022599;28;20177;-43
2023/11/30 05:06:37;;;;;;;3.47;3.47;;;;;;;;;;5030192;28;20196;-44
2023/11/30 05:09:03;;;;;;;3.77;3.77;;;;;;;;;;5026983;28;20462;-43
2023/11/30 05:11:29;;;;;;;3.13;3.13;;;;;;;;;;5025545;28;20407;-44
2023/11/30 05:13:55;;;;;;;3.40;3.40;;;;;;;;;;5025488;28;20160;-43
2023/11/30 05:16:21;;;;;;;3.10;3.10;;;;;;;;;;5026169;28;20230;-44
2023/11/30 05:18:47;;;;;;;2.97;2.97;;;;;;;;;;5031453;28;20512;-43
2023/11/30 05:21:13;;;;;;;3.35;3.35;;;;;;;;;;5019625;28;20411;-43
2023/11/30 05:23:39;;;;;;;2.70;2.70;;;;;;;;;;5023874;28;20171;-43
2023/11/30 05:26:05;;;;;;;2.90;2.90;;;;;;;;;;5027560;28;20176;-43
2023/11/30 05:28:32;;;;;;;2.80;2.80;;;;;;;;;;5014905;28;20419;-43
2023/11/30 05:30:58;;;;;;;2.90;2.75;;;;;;;;;;5032943;28;20193;-43
2023/11/30 05:33:26;;;;;;;3.10;3.10;;;;;;;;;;5015815;28;20208;-43
2023/11/30 05:35:52;;;;;;;2.80;2.80;;;;;;;;;;5027235;28;20171;-43
2023/11/30 05:38:19;;;;;;;2.70;2.70;;;;;;;;;;5023474;28;20208;-43
2023/11/30 05:40:45;;;;;;;2.97;2.97;;;;;;;;;;5018963;28;20413;-43
2023/11/30 05:43:11;;;;;;;3.13;3.13;;;;;;;;;;5030676;28;20251;-44
2023/11/30 05:45:37;;;;;;;3.63;3.63;;;;;;;;;;5013463;28;20263;-43
2023/11/30 05:48:03;;;;;;;3.10;3.10;;;;;;;;;;4995753;28;20806;-43
2023/11/30 05:50:29;;;;;;;10.40;10.07;;;;;;;;;;5007011;28;20203;-43
2023/11/30 05:52:55;;;;;;;13.30;12.77;;;;;;;;;;5004026;28;20417;-43
2023/11/30 05:55:21;;;;;;;41.37;38.77;;;;;;;;;;4998616;28;20415;-43
2023/11/30 05:57:47;;;;;;;3.57;3.50;;;;;;;;;;5011928;28;20473;-44
2023/11/30 06:00:13;;;;;;;14.57;14.07;;;;;;;;;;4993722;28;20404;-44
2023/11/30 06:02:39;;;;;;;32.55;30.23;;;;;;;;;;5010113;28;20929;-44
2023/11/30 06:05:06;;;;;;;99.28;92.70;;;;;;;;;;5000196;28;20187;-43
2023/11/30 06:07:31;;;;;;;4.25;4.13;;;;;;;;;;5001729;28;20201;-44
2023/11/30 06:09:57;;;;;;;3.30;3.30;;;;;;;;;;5008232;28;20255;-44
2023/11/30 06:12:24;;;;;;;2.90;2.90;;;;;;;;;;4994212;28;20432;-43
2023/11/30 06:14:50;;;;;;;4.68;4.57;;;;;;;;;;5013123;28;20751;-43
2023/11/30 06:17:17;;;;;;;3.80;3.72;;;;;;;;;;4996036;28;20661;-43
2023/11/30 06:19:43;;;;;;;6.07;5.97;;;;;;;;;;5005588;28;20176;-44
2023/11/30 06:22:09;;;;;;;7.60;7.30;;;;;;;;;;5009004;28;20191;-44
2023/11/30 06:24:35;;;;;;;9.40;8.98;;;;;;;;;;5012330;28;20412;-43
2023/11/30 06:27:02;;;;;;;22.08;20.70;;;;;;;;;;5011929;28;20168;-44
2023/11/30 06:29:29;;;;;;;12.60;11.95;;;;;;;;;;5004744;28;20601;-43
2023/11/30 06:31:59;;;;;;;11.75;10.90;;;;;;;;;;5022862;28;20168;-43
2023/11/30 06:34:25;;;;;;;16.85;15.65;;;;;;;;;;5017874;28;20206;-43
2023/11/30 06:36:51;;;;;;;13.67;12.67;;;;;;;;;;5023912;28;20319;-43
2023/11/30 06:39:18;;;;;;;13.37;12.33;;;;;;;;;;5027915;28;20410;-43
2023/11/30 06:41:47;;;;;;;23.05;21.25;;;;;;;;;;5020108;28;20423;-43
2023/11/30 06:44:13;;;;;;;13.93;12.82;;;;;;;;;;5021055;28;20267;-43
2023/11/30 06:46:42;;;;;;;16.03;14.83;;;;;;;;;;5018784;28;20271;-43
2023/11/30 06:49:08;;;;;;;10.82;9.75;;;;;;;;;;5023582;28;20575;-43
2023/11/30 06:51:34;;;;;;;9.10;8.13;;;;;;;;;;5022338;28;20172;-43
2023/11/30 06:54:00;;;;;;;9.87;9.07;;;;;;;;;;5020353;28;20176;-42
2023/11/30 06:56:26;;;;;;;11.80;10.82;;;;;;;;;;5025373;28;20413;-43
2023/11/30 06:58:52;;;;;;;13.93;12.80;;;;;;;;;;5019094;28;20195;-44
2023/11/30 07:01:18;;;;;;;10.30;9.40;;;;;;;;;;5018451;28;20943;-43
2023/11/30 07:03:44;;;;;;;12.20;11.17;;;;;;;;;;5020590;28;20226;-43
2023/11/30 07:06:10;;;;;;;13.98;12.90;;;;;;;;;;5019186;28;20400;-43
2023/11/30 07:08:36;;;;;;;15.27;13.95;;;;;;;;;;5020592;28;20513;-43
2023/11/30 07:11:03;;;;;;;10.23;9.27;;;;;;;;;;5023283;28;20708;-43
2023/11/30 07:13:29;;;;;;;12.23;11.02;;;;;;;;;;5022988;28;20176;-43
2023/11/30 07:15:56;;;;;;;13.20;12.10;;;;;;;;;;5017393;28;20186;-44
2023/11/30 07:18:21;;;;;;;10.70;9.60;;;;;;;;;;5015526;28;20198;-43
2023/11/30 07:20:47;;;;;;;15.00;13.60;;;;;;;;;;5020079;28;20179;-44
2023/11/30 07:23:13;;;;;;;11.97;10.90;;;;;;;;;;5011496;28;20458;-43
2023/11/30 07:25:39;;;;;;;12.77;11.50;;;;;;;;;;5013300;28;20406;-43
2023/11/30 07:28:05;;;;;;;13.90;12.70;;;;;;;;;;5013158;28;21012;-43
2023/11/30 07:30:31;;;;;;;11.70;10.70;;;;;;;;;;5011051;28;20465;-43
2023/11/30 07:32:59;;;;;;;10.73;9.73;;;;;;;;;;5015685;28;20424;-43
2023/11/30 07:35:26;;;;;;;9.82;8.93;;;;;;;;;;5014745;28;20871;-44
2023/11/30 07:37:52;;;;;;;11.05;10.05;;;;;;;;;;5011582;28;20275;-43
2023/11/30 07:40:18;;;;;;;11.52;10.52;;;;;;;;;;5015355;28;20271;-43
2023/11/30 07:42:44;;;;;;;11.30;10.20;;;;;;;;;;5016939;28;20267;-43
2023/11/30 07:45:10;;;;;;;10.57;9.47;;;;;;;;;;5011463;28;20213;-44
2023/11/30 07:47:36;;;;;;;9.52;8.63;;;;;;;;;;5011056;28;20538;-44
2023/11/30 07:50:02;;;;;;;10.33;9.30;;;;;;;;;;5007851;28;20203;-43
2023/11/30 07:52:28;;;;;;;9.43;8.40;;;;;;;;;;5025299;28;20413;-43
2023/11/30 07:54:54;;;;;;;9.57;8.45;;;;;;;;;;5015217;28;20417;-43
2023/11/30 07:57:20;;;;;;;12.18;10.88;;;;;;;;;;5017144;28;20196;-43
2023/11/30 07:59:47;;;;;;;10.20;8.83;;;;;;;;;;5024110;28;20518;-43
2023/11/30 08:02:13;;;;;;;9.90;8.52;;;;;;;;;;5023416;28;20908;-44
2023/11/30 08:04:41;;;;;;;11.95;10.85;;;;;;;;;;5024174;28;20191;-43
2023/11/30 08:07:07;;;;;;;10.30;9.02;;;;;;;;;;5014641;28;20204;-43
2023/11/30 08:09:33;;;;;;;10.07;9.07;;;;;;;;;;5022834;28;20210;-44
2023/11/30 08:11:58;;;;;;;10.20;9.20;;;;;;;;;;5021854;28;20410;-43
2023/11/30 08:14:24;;;;;;;9.97;8.97;;;;;;;;;;5019170;28;20425;-44
2023/11/30 08:16:50;;;;;;;10.00;9.00;;;;;;;;;;5017243;28;20468;-44
2023/11/30 08:19:17;;;;;;;12.68;11.30;;;;;;;;;;5025107;28;20646;-43
2023/11/30 08:21:44;;;;;;;10.95;9.85;;;;;;;;;;5024115;28;20177;-43
2023/11/30 08:24:11;;;;;;;10.50;9.45;;;;;;;;;;5022818;28;20174;-43
2023/11/30 08:26:37;;;;;;;11.23;10.10;;;;;;;;;;5024990;28;20175;-43
2023/11/30 08:29:03;;;;;;;10.77;9.67;;;;;;;;;;5015083;28;20302;-43
2023/11/30 08:31:29;;;;;;;12.10;11.00;;;;;;;;;;5015106;28;20906;-43
2023/11/30 08:33:56;;;;;;;11.68;10.52;;;;;;;;;;5026306;28;20172;-43
2023/11/30 08:36:22;;;;;;;10.80;9.77;;;;;;;;;;5018894;28;20186;-43
2023/11/30 08:38:48;;;;;;;12.70;11.25;;;;;;;;;;5021813;28;20189;-43
2023/11/30 08:41:14;;;;;;;9.88;8.93;;;;;;;;;;5013046;28;20233;-43
2023/11/30 08:43:40;;;;;;;11.20;10.10;;;;;;;;;;5022385;28;20175;-43
2023/11/30 08:46:06;;;;;;;13.07;11.93;;;;;;;;;;5022343;28;20555;-43
2023/11/30 08:48:33;;;;;;;10.55;9.50;;;;;;;;;;5028034;28;20206;-42
2023/11/30 08:50:58;;;;;;;11.57;10.43;;;;;;;;;;5016862;28;20210;-43
2023/11/30 08:53:25;;;;;;;11.50;10.40;;;;;;;;;;5018092;28;20518;-44
2023/11/30 08:55:50;;;;;;;13.85;12.63;;;;;;;;;;5033723;28;20487;-43
2023/11/30 08:58:16;;;;;;;9.93;8.93;;;;;;;;;;5014252;28;20731;-44
2023/11/30 09:00:43;;;;;;;12.20;10.90;;;;;;;;;;5029465;28;20988;-44
2023/11/30 09:03:09;;;;;;;12.75;11.63;;;;;;;;;;5022293;28;20208;-44
2023/11/30 09:05:35;;;;;;;13.57;12.18;;;;;;;;;;5020386;28;20175;-43
2023/11/30 09:08:01;;;;;;;11.45;10.40;;;;;;;;;;5030159;28;20585;-44
2023/11/30 09:10:28;;;;;;;11.98;10.98;;;;;;;;;;5014030;28;20253;-44
2023/11/30 09:12:54;;;;;;;14.88;13.77;;;;;;;;;;5033543;28;20185;-44
2023/11/30 09:15:21;;;;;;;16.20;15.00;;;;;;;;;;5018223;28;20183;-44
2023/11/30 09:17:47;;;;;;;17.98;16.67;;;;;;;;;;5024895;28;20199;-44
2023/11/30 09:20:13;;;;;;;19.38;17.98;;;;;;;;;;5026223;28;20172;-43
2023/11/30 09:22:39;;;;;;;20.60;19.20;;;;;;;;;;5016634;28;20278;-44
2023/11/30 09:25:05;;;;;;;19.10;17.80;;;;;;;;;;5014147;28;20644;-43
2023/11/30 09:27:32;;;;;;;19.90;18.55;;;;;;;;;;5013584;28;20200;-43
2023/11/30 09:29:58;;;;;;;21.77;20.27;;;;;;;;;;5013578;28;20581;-44
2023/11/30 09:32:26;;;;;;;22.27;20.77;;;;;;;;;;5016543;28;20177;-44
2023/11/30 09:34:53;;;;;;;26.52;24.63;;;;;;;;;;5008707;28;20540;-43
2023/11/30 09:37:19;;;;;;;34.88;32.60;;;;;;;;;;5025231;28;20208;-43
2023/11/30 09:39:46;;;;;;;24.30;22.70;;;;;;;;;;5018223;28;20175;-43
2023/11/30 09:42:16;;;;;;;23.27;21.77;;;;;;;;;;5021604;28;20426;-45
2023/11/30 09:44:42;;;;;;;25.15;23.50;;;;;;;;;;5024924;28;20263;-43
2023/11/30 09:47:09;;;;;;;25.23;23.63;;;;;;;;;;5024184;28;20189;-43
2023/11/30 09:49:35;;;;;;;30.67;28.58;;;;;;;;;;5019191;28;20211;-43
2023/11/30 09:52:01;;;;;;;30.97;29.00;;;;;;;;;;5011440;28;20241;-44
2023/11/30 09:54:27;;;;;;;25.30;23.60;;;;;;;;;;5012380;28;20407;-45
2023/11/30 09:56:52;;;;;;;25.60;24.10;;;;;;;;;;5012657;28;20401;-43
2023/11/30 09:59:19;;;;;;;27.03;25.53;;;;;;;;;;5001666;28;20959;-44
2023/11/30 10:01:45;;;;;;;24.38;22.88;;;;;;;;;;5021249;28;20415;-43
2023/11/30 10:04:17;;;;;;;25.40;23.77;;;;;;;;;;5013600;28;20243;-43
2023/11/30 10:06:44;;;;;;;24.38;22.73;;;;;;;;;;5012169;28;20845;-43
2023/11/30 10:09:12;;;;;;;24.58;22.90;;;;;;;;;;5018098;28;20219;-43
2023/11/30 10:11:39;;;;;;;25.00;23.30;;;;;;;;;;5011944;28;20234;-44
2023/11/30 10:14:04;;;;;;;29.63;27.35;;;;;;;;;;5014738;28;20483;-44
2023/11/30 10:16:30;;;;;;;23.47;21.97;;;;;;;;;;5010074;28;20176;-43
2023/11/30 10:18:56;;;;;;;25.93;24.23;;;;;;;;;;5012278;28;20444;-43
2023/11/30 10:21:22;;;;;;;26.40;24.70;;;;;;;;;;5014828;28;20426;-43
2023/11/30 10:23:48;;;;;;;26.27;24.57;;;;;;;;;;5012501;28;20782;-43
2023/11/30 10:26:16;;;;;;;27.10;25.30;;;;;;;;;;5020193;28;20418;-43
2023/11/30 10:28:42;;;;;;;28.27;26.57;;;;;;;;;;5027471;28;20445;-48
2023/11/30 10:31:09;;;;;;;24.93;23.33;;;;;;;;;;5014587;28;20851;-44
2023/11/30 10:33:40;;;;;;;24.87;23.27;;;;;;;;;;5023721;28;20412;-43
2023/11/30 10:36:07;;;;;;;24.57;22.97;;;;;;;;;;5021896;28;20846;-43
2023/11/30 10:38:33;;;;;;;24.87;23.27;;;;;;;;;;5024006;28;20476;-43
2023/11/30 10:41:08;;;;;;;32.17;29.27;;;;;;;;;;5029400;28;20426;-43
2023/11/30 10:43:37;;;;;;;63.28;56.33;;;;;;;;;;5029343;28;20432;-43
2023/11/30 10:46:07;;;;;;;39.38;36.58;;;;;;;;;;5026022;28;20215;-44
2023/11/30 10:48:34;;;;;;;24.43;22.73;;;;;;;;;;5020546;28;20224;-44
2023/11/30 10:51:00;;;;;;;20.57;19.17;;;;;;;;;;5019211;28;21027;-44
2023/11/30 10:53:32;;;;;;;22.60;21.10;;;;;;;;;;5028880;28;20947;-43
2023/11/30 10:55:58;;;;;;;22.43;20.93;;;;;;;;;;5011717;28;20399;-45
2023/11/30 10:58:24;;;;;;;24.60;22.90;;;;;;;;;;5028985;28;20479;-43
2023/11/30 11:00:59;;;;;;;22.27;20.77;;;;;;;;;;5015574;28;20418;-44
2023/11/30 11:03:27;;;;;;;21.37;19.90;;;;;;;;;;5024662;28;20419;-44
2023/11/30 11:05:57;;;;;;;23.23;21.70;;;;;;;;;;5023121;28;20425;-44
2023/11/30 11:08:31;;;;;;;21.30;19.90;;;;;;;;;;5011951;28;21012;-43
2023/11/30 11:11:05;;;;;;;26.00;24.20;;;;;;;;;;5006375;28;20541;-43
2023/11/30 11:13:34;;;;;;;45.17;33.03;;;;;;;;;;5014640;28;20402;-44
2023/11/30 11:16:02;;;;;;;75.35;40.20;;;;;;;;;;5011820;28;20415;-44
2023/11/30 11:18:29;;;;;;;56.17;33.42;;;;;;;;;;5027289;28;20794;-44
2023/11/30 11:20:55;;;;;;;23.27;21.77;;;;;;;;;;5019905;28;20187;-43
2023/11/30 11:23:21;;;;;;;171.50;64.55;;;;;;;;;;5019375;28;20410;-44
2023/11/30 11:25:47;;;;;;;204.97;75.30;;;;;;;;;;5023167;28;20664;-44
2023/11/30 11:28:17;;;;;;;190.85;71.13;;;;;;;;;;5014892;28;20422;-44
2023/11/30 11:30:47;;;;;;;211.05;78.80;;;;;;;;;;5037926;28;20839;-43
2023/11/30 11:33:17;;;;;;;49.47;30.63;;;;;;;;;;5021608;28;20198;-43
2023/11/30 11:35:43;;;;;;;25.53;22.90;;;;;;;;;;5019520;28;21193;-43
2023/11/30 11:38:09;;;;;;;209.17;75.20;;;;;;;;;;5017938;28;20433;-43
2023/11/30 11:40:38;;;;;;;205.33;72.40;;;;;;;;;;5022674;28;20418;-43
2023/11/30 11:43:04;;;;;;;198.10;76.27;;;;;;;;;;5035067;28;20410;-43
2023/11/30 11:45:32;;;;;;;199.40;74.47;;;;;;;;;;5020693;28;20414;-43
2023/11/30 11:47:58;;;;;;;193.90;70.07;;;;;;;;;;5017356;28;20445;-43
2023/11/30 11:50:24;;;;;;;202.00;72.03;;;;;;;;;;5005042;28;20219;-43
2023/11/30 11:52:50;;;;;;;203.10;74.23;;;;;;;;;;5006902;28;20422;-43
2023/11/30 11:55:16;;;;;;;193.63;69.15;;;;;;;;;;5013138;28;20432;-43
2023/11/30 11:57:44;;;;;;;192.20;72.60;;;;;;;;;;4998639;28;20677;-43
2023/11/30 12:00:10;;;;;;;181.27;74.03;;;;;;;;;;5018159;28;20403;-44
2023/11/30 12:02:36;;;;;;;160.60;64.28;;;;;;;;;;5001151;28;20181;-44
2023/11/30 12:05:11;;;;;;;178.10;66.25;;;;;;;;;;5010566;28;20183;-44
2023/11/30 12:07:56;;;;;;;181.75;69.43;;;;;;;;;;5007727;28;20683;-43
2023/11/30 12:10:28;;;;;;;188.98;75.63;;;;;;;;;;5006211;28;20242;-43
2023/11/30 12:12:55;;;;;;;187.10;69.93;;;;;;;;;;5009115;28;20543;-43
2023/11/30 12:15:21;;;;;;;190.38;74.22;;;;;;;;;;5003669;28;20631;-44
2023/11/30 12:17:47;;;;;;;189.10;70.43;;;;;;;;;;5017333;28;20276;-43
2023/11/30 12:20:13;;;;;;;189.60;69.47;;;;;;;;;;5017265;28;20420;-43
2023/11/30 12:22:40;;;;;;;190.97;73.70;;;;;;;;;;5017096;28;20834;-43
2023/11/30 12:25:07;;;;;;;193.57;72.85;;;;;;;;;;5017323;28;20843;-43
2023/11/30 12:27:33;;;;;;;186.68;68.95;;;;;;;;;;5012443;28;20196;-43
2023/11/30 12:29:59;;;;;;;190.40;70.67;;;;;;;;;;4998433;28;20209;-43
2023/11/30 12:32:25;;;;;;;187.55;71.82;;;;;;;;;;5017576;28;20907;-44
2023/11/30 12:34:52;;;;;;;185.10;66.97;;;;;;;;;;5011734;28;20251;-43
2023/11/30 12:37:19;;;;;;;192.85;71.80;;;;;;;;;;5015590;28;20427;-43
2023/11/30 12:39:45;;;;;;;188.95;67.88;;;;;;;;;;5014047;28;20168;-43
2023/11/30 12:42:11;;;;;;;192.27;71.38;;;;;;;;;;5008645;28;20188;-43
2023/11/30 12:44:37;;;;;;;190.43;67.00;;;;;;;;;;4999362;28;20180;-43
2023/11/30 12:47:03;;;;;;;186.20;68.65;;;;;;;;;;5013280;28;20414;-43
2023/11/30 12:49:29;;;;;;;179.07;65.47;;;;;;;;;;5012915;28;20203;-43
2023/11/30 12:51:55;;;;;;;187.57;67.27;;;;;;;;;;5013945;28;20176;-43
2023/11/30 12:54:21;;;;;;;187.07;64.70;;;;;;;;;;5013829;28;20907;-43
2023/11/30 12:56:47;;;;;;;192.15;67.25;;;;;;;;;;5013665;28;20421;-42
2023/11/30 12:59:13;;;;;;;190.13;68.17;;;;;;;;;;5013697;28;20165;-44
2023/11/30 13:01:39;;;;;;;190.70;68.73;;;;;;;;;;5014100;28;20443;-42
2023/11/30 13:04:06;;;;;;;184.60;66.30;;;;;;;;;;5013848;28;20706;-43
2023/11/30 13:06:32;;;;;;;179.10;70.32;;;;;;;;;;5004557;28;20412;-44
2023/11/30 13:08:58;;;;;;;185.15;75.03;;;;;;;;;;5007456;28;20200;-44
2023/11/30 13:11:24;;;;;;;179.60;68.80;;;;;;;;;;5008787;28;20228;-44
2023/11/30 13:13:50;;;;;;;173.43;66.07;;;;;;;;;;5013507;28;20407;-43
2023/11/30 13:16:16;;;;;;;176.80;70.32;;;;;;;;;;5013025;28;20406;-43
2023/11/30 13:18:42;;;;;;;178.93;67.90;;;;;;;;;;5012904;28;20188;-43
2023/11/30 13:21:08;;;;;;;182.07;69.43;;;;;;;;;;5002562;28;20466;-43
2023/11/30 13:23:34;;;;;;;179.07;68.40;;;;;;;;;;5000943;28;20411;-43
2023/11/30 13:26:00;;;;;;;179.00;71.63;;;;;;;;;;5010078;28;20184;-43
2023/11/30 13:28:26;;;;;;;174.90;66.93;;;;;;;;;;4993431;28;20523;-43
2023/11/30 13:30:52;;;;;;;172.30;65.50;;;;;;;;;;5012526;28;20567;-43
2023/11/30 13:33:18;;;;;;;171.68;65.15;;;;;;;;;;4998331;28;20657;-43
2023/11/30 13:35:44;;;;;;;173.10;64.57;;;;;;;;;;5004065;28;20211;-44
2023/11/30 13:38:10;;;;;;;178.80;70.70;;;;;;;;;;5006310;28;20439;-43
2023/11/30 13:40:36;;;;;;;180.93;70.40;;;;;;;;;;4995936;28;20185;-43
2023/11/30 13:43:02;;;;;;;177.68;68.43;;;;;;;;;;5013388;28;20168;-43
2023/11/30 13:45:28;;;;;;;191.18;78.82;;;;;;;;;;4993998;28;20256;-44
2023/11/30 13:47:55;;;;;;;191.48;74.82;;;;;;;;;;5005025;28;20560;-44
2023/11/30 13:50:23;;;;;;;175.80;72.50;;;;;;;;;;5007907;28;20199;-43
2023/11/30 13:52:49;;;;;;;177.43;74.78;;;;;;;;;;5012019;28;20180;-44
2023/11/30 13:55:15;;;;;;;177.03;72.53;;;;;;;;;;5009916;28;20191;-43
2023/11/30 13:57:43;;;;;;;183.30;70.10;;;;;;;;;;4993799;28;20427;-42
2023/11/30 14:00:09;;;;;;;188.13;75.10;;;;;;;;;;5011641;28;20415;-42
2023/11/30 14:02:39;;;;;;;176.85;69.20;;;;;;;;;;4998673;28;20180;-42
2023/11/30 14:05:05;;;;;;;174.60;66.00;;;;;;;;;;5003996;28;20172;-43
2023/11/30 14:07:33;;;;;;;176.13;67.38;;;;;;;;;;5009074;28;20191;-43
2023/11/30 14:09:59;;;;;;;176.48;67.13;;;;;;;;;;5011845;28;20207;-43
2023/11/30 14:12:26;;;;;;;180.05;71.65;;;;;;;;;;5012819;28;20177;-44
2023/11/30 14:14:53;;;;;;;179.15;68.18;;;;;;;;;;5012124;28;20188;-42
2023/11/30 14:17:19;;;;;;;184.18;72.70;;;;;;;;;;5012336;28;20235;-42